createdAt,value
2018-09-13T00:02:10.835Z,9.13
2018-09-13T00:04:38.625Z,8.17
2018-09-13T00:07:06.392Z,8.53
2018-09-13T00:09:34.202Z,11.23
2018-09-13T00:12:02.038Z,10.80
2018-09-13T00:14:29.932Z,10.70
2018-09-13T00:16:57.720Z,10.00
2018-09-13T00:19:25.562Z,8.53
2018-09-13T00:21:53.351Z,9.37
2018-09-13T00:24:21.133Z,7.37
2018-09-13T00:26:48.928Z,8.90
2018-09-13T00:29:16.709Z,9.37
2018-09-13T00:31:44.593Z,7.83
2018-09-13T00:34:13.348Z,10.20
2018-09-13T00:36:41.190Z,11.23
2018-09-13T00:39:09.659Z,10.97
2018-09-13T00:41:38.029Z,8.87
2018-09-13T00:44:05.879Z,8.90
2018-09-13T00:46:34.045Z,11.27
2018-09-13T00:49:01.998Z,11.77
2018-09-13T00:51:29.767Z,9.57
2018-09-13T00:53:57.571Z,9.73
2018-09-13T00:56:25.362Z,10.13
2018-09-13T00:58:53.210Z,12.10
2018-09-13T01:01:21.421Z,10.93
2018-09-13T01:03:49.271Z,9.73
2018-09-13T01:06:17.152Z,11.10
2018-09-13T01:08:44.942Z,11.17
2018-09-13T01:11:12.760Z,10.90
2018-09-13T01:13:40.533Z,12.63
2018-09-13T01:16:08.331Z,10.90
2018-09-13T01:18:36.559Z,11.10
2018-09-13T01:21:04.431Z,9.27
2018-09-13T01:23:32.277Z,8.43
2018-09-13T01:26:00.195Z,11.13
2018-09-13T01:28:27.990Z,8.97
2018-09-13T01:30:55.861Z,9.63
2018-09-13T01:33:23.662Z,10.57
2018-09-13T01:35:51.478Z,9.63
2018-09-13T01:38:19.372Z,11.53
2018-09-13T01:40:47.170Z,10.83
2018-09-13T01:43:14.985Z,11.27
2018-09-13T01:45:42.860Z,11.00
2018-09-13T01:48:10.764Z,8.67
2018-09-13T01:50:38.593Z,9.40
2018-09-13T01:53:06.438Z,8.97
2018-09-13T01:55:34.221Z,6.87
2018-09-13T01:58:02.089Z,7.57
2018-09-13T02:00:29.882Z,7.73
2018-09-13T02:02:57.663Z,11.17
2018-09-13T02:05:25.548Z,10.57
2018-09-13T02:07:53.314Z,10.63
2018-09-13T02:10:21.155Z,8.73
2018-09-13T02:12:48.935Z,9.63
2018-09-13T02:15:16.770Z,10.47
2018-09-13T02:17:44.564Z,9.30
2018-09-13T02:20:12.411Z,10.57
2018-09-13T02:22:40.864Z,12.93
2018-09-13T02:25:08.642Z,10.73
2018-09-13T02:27:36.427Z,10.10
2018-09-13T02:30:04.295Z,10.73
2018-09-13T02:32:32.118Z,10.80
2018-09-13T02:35:00.053Z,11.33
2018-09-13T02:37:27.895Z,10.57
2018-09-13T02:39:55.765Z,11.40
2018-09-13T02:42:23.759Z,11.77
2018-09-13T02:44:51.592Z,10.13
2018-09-13T02:47:19.456Z,11.20
2018-09-13T02:49:47.222Z,10.80
2018-09-13T02:52:14.997Z,9.87
2018-09-13T02:54:42.779Z,12.90
2018-09-13T02:57:10.571Z,10.77
2018-09-13T02:59:38.417Z,10.53
2018-09-13T03:02:06.315Z,12.13
2018-09-13T03:04:34.085Z,14.50
2018-09-13T03:07:01.870Z,14.20
2018-09-13T03:09:29.703Z,14.73
2018-09-13T03:11:57.512Z,12.07
2018-09-13T03:14:25.301Z,12.07
2018-09-13T03:16:53.073Z,12.50
2018-09-13T03:19:20.890Z,11.80
2018-09-13T03:21:48.677Z,13.17
2018-09-13T03:24:16.572Z,14.30
2018-09-13T03:26:44.492Z,13.43
2018-09-13T03:29:12.375Z,14.93
2018-09-13T03:31:40.239Z,12.07
2018-09-13T03:34:08.128Z,15.80
2018-09-13T03:36:35.911Z,18.77
2018-09-13T03:39:03.916Z,14.80
2018-09-13T03:41:31.749Z,18.67
2018-09-13T03:43:59.563Z,17.37
2018-09-13T03:46:27.467Z,18.57
2018-09-13T03:48:55.279Z,15.77
2018-09-13T03:51:23.111Z,20.23
2018-09-13T03:53:50.906Z,17.90
2018-09-13T03:56:18.752Z,20.73
2018-09-13T03:58:46.972Z,16.80
2018-09-13T04:01:14.852Z,16.33
2018-09-13T04:03:42.827Z,14.93
2018-09-13T04:06:11.661Z,17.50
2018-09-13T04:08:39.658Z,15.63
2018-09-13T04:11:07.618Z,12.73
2018-09-13T04:13:35.605Z,14.83
2018-09-13T04:16:03.394Z,12.83
2018-09-13T04:18:31.348Z,13.93
2018-09-13T04:20:59.155Z,13.93
2018-09-13T04:23:26.972Z,12.23
2018-09-13T04:25:54.771Z,15.67
2018-09-13T04:28:22.572Z,14.07
2018-09-13T04:30:50.472Z,14.27
2018-09-13T04:33:18.253Z,13.77
2018-09-13T04:35:46.164Z,16.30
2018-09-13T04:38:13.919Z,15.17
2018-09-13T04:40:41.717Z,11.20
2018-09-13T04:43:09.507Z,15.03
2018-09-13T04:45:37.306Z,14.00
2018-09-13T04:48:05.135Z,15.77
2018-09-13T04:50:32.907Z,15.43
2018-09-13T04:53:00.723Z,15.23
2018-09-13T04:55:28.571Z,15.33
2018-09-13T04:57:56.491Z,15.03
2018-09-13T05:00:24.361Z,14.00
2018-09-13T05:02:52.075Z,15.63
2018-09-13T05:05:19.886Z,17.07
2018-09-13T05:07:47.732Z,13.77
2018-09-13T05:10:15.544Z,20.40
2018-09-13T05:12:43.442Z,22.20
2018-09-13T05:15:11.337Z,15.67
2018-09-13T05:17:39.149Z,13.00
2018-09-13T05:20:07.020Z,11.47
2018-09-13T05:22:34.828Z,13.00
2018-09-13T05:25:02.608Z,12.50
2018-09-13T05:27:30.458Z,9.00
2018-09-13T05:29:58.253Z,12.10
2018-09-13T05:32:26.127Z,12.70
2018-09-13T05:34:53.963Z,9.50
2018-09-13T05:37:21.884Z,10.07
2018-09-13T05:39:49.683Z,11.60
2018-09-13T05:42:17.459Z,9.53
2018-09-13T05:44:48.935Z,10.70
2018-09-13T05:47:16.725Z,9.53
2018-09-13T05:49:44.549Z,10.87
2018-09-13T05:52:13.369Z,11.37
2018-09-13T05:54:41.284Z,11.97
2018-09-13T05:57:09.143Z,9.90
2018-09-13T05:59:37.055Z,10.63
2018-09-13T06:02:04.912Z,12.23
2018-09-13T06:04:32.722Z,10.37
2018-09-13T06:07:01.880Z,9.97
2018-09-13T06:09:29.978Z,12.00
2018-09-13T06:11:58.497Z,9.53
2018-09-13T06:14:26.292Z,10.20
2018-09-13T06:16:54.222Z,12.07
2018-09-13T06:19:22.029Z,12.77
2018-09-13T06:21:50.192Z,13.63
2018-09-13T06:24:18.026Z,11.47
2018-09-13T06:26:45.931Z,9.10
2018-09-13T06:29:13.727Z,12.80
2018-09-13T06:31:41.564Z,13.83
2018-09-13T06:34:09.442Z,12.07
2018-09-13T06:36:37.225Z,13.23
2018-09-13T06:39:06.745Z,16.03
2018-09-13T06:41:34.567Z,10.07
2018-09-13T06:44:03.185Z,10.40
2018-09-13T06:46:30.965Z,11.03
2018-09-13T06:48:58.798Z,11.00
2018-09-13T06:51:26.592Z,11.57
2018-09-13T06:53:54.378Z,11.27
2018-09-13T06:56:22.166Z,11.53
2018-09-13T06:58:50.133Z,12.37
2018-09-13T07:01:18.050Z,14.53
2018-09-13T07:03:45.838Z,11.20
2018-09-13T07:06:13.657Z,11.47
2018-09-13T07:08:41.447Z,10.37
2018-09-13T07:11:09.260Z,12.70
2018-09-13T07:13:38.032Z,10.30
2018-09-13T07:16:06.032Z,9.60
2018-09-13T07:18:33.907Z,13.57
2018-09-13T07:21:01.713Z,11.83
2018-09-13T07:23:29.581Z,12.03
2018-09-13T07:25:57.386Z,11.63
2018-09-13T07:28:25.259Z,11.57
2018-09-13T07:30:53.239Z,14.20
2018-09-13T07:33:20.987Z,10.80
2018-09-13T07:35:48.807Z,11.60
2018-09-13T07:38:16.980Z,12.33
2018-09-13T07:40:45.104Z,19.00
2018-09-13T07:43:12.967Z,19.30
2018-09-13T07:45:40.842Z,12.20
2018-09-13T07:48:08.663Z,11.73
2018-09-13T07:50:36.470Z,10.90
2018-09-13T07:53:04.336Z,12.50
2018-09-13T07:55:32.267Z,12.83
2018-09-13T07:58:00.698Z,15.40
2018-09-13T08:00:29.572Z,8.97
2018-09-13T08:02:57.425Z,9.27
2018-09-13T08:05:25.265Z,9.13
2018-09-13T08:07:53.121Z,10.03
2018-09-13T08:10:20.910Z,11.10
2018-09-13T08:12:48.718Z,10.43
2018-09-13T08:15:16.533Z,13.03
2018-09-13T08:17:44.338Z,10.20
2018-09-13T08:20:12.198Z,9.00
2018-09-13T08:22:40.039Z,8.00
2018-09-13T08:25:07.878Z,7.70
2018-09-13T08:27:35.818Z,8.93
2018-09-13T08:30:03.712Z,8.20
2018-09-13T08:32:31.527Z,5.80
2018-09-13T08:34:59.427Z,6.80
2018-09-13T08:37:27.302Z,9.50
2018-09-13T08:39:55.161Z,6.87
2018-09-13T08:42:23.130Z,6.13
2018-09-13T08:44:51.243Z,5.63
2018-09-13T08:47:19.024Z,5.90
2018-09-13T08:49:46.842Z,5.00
2018-09-13T08:52:14.685Z,5.60
2018-09-13T08:54:42.529Z,5.00
2018-09-13T08:57:10.309Z,4.90
2018-09-13T08:59:38.098Z,6.03
2018-09-13T09:02:06.010Z,8.00
2018-09-13T09:04:33.818Z,6.70
2018-09-13T09:07:01.719Z,5.30
2018-09-13T09:09:29.583Z,4.23
2018-09-13T09:11:57.778Z,4.47
2018-09-13T09:14:25.516Z,5.30
2018-09-13T09:16:53.552Z,4.80
2018-09-13T09:19:21.417Z,6.30
2018-09-13T09:21:49.182Z,5.97
2018-09-13T09:24:16.978Z,15.23
2018-09-13T09:26:44.807Z,6.63
2018-09-13T09:29:12.671Z,5.83
2018-09-13T09:31:40.483Z,5.13
2018-09-13T09:34:08.302Z,5.17
2018-09-13T09:36:36.099Z,5.57
2018-09-13T09:39:06.152Z,4.53
2018-09-13T09:41:33.990Z,4.97
2018-09-13T09:44:02.145Z,6.57
2018-09-13T09:46:29.990Z,5.83
2018-09-13T09:48:57.758Z,4.07
2018-09-13T09:51:25.617Z,3.80
2018-09-13T09:53:53.430Z,3.30
2018-09-13T09:56:21.263Z,4.57
2018-09-13T09:58:49.053Z,3.13
2018-09-13T10:01:27.014Z,4.63
2018-09-13T10:03:55.539Z,4.00
2018-09-13T10:06:23.454Z,3.37
2018-09-13T10:08:51.315Z,5.43
2018-09-13T10:11:19.205Z,4.70
2018-09-13T10:13:47.225Z,4.20
2018-09-13T10:16:20.432Z,5.00
2018-09-13T10:18:52.491Z,4.50
2018-09-13T10:21:25.449Z,4.90
2018-09-13T10:23:58.628Z,3.70
2018-09-13T10:26:31.705Z,3.70
2018-09-13T10:29:04.825Z,4.90
2018-09-13T10:31:37.900Z,6.87
2018-09-13T10:34:11.289Z,4.30
2018-09-13T10:36:44.394Z,3.73
2018-09-13T10:39:17.446Z,5.80
2018-09-13T10:41:50.585Z,3.50
2018-09-13T10:44:23.758Z,3.80
2018-09-13T10:49:00.644Z,3.93
2018-09-13T10:51:34.168Z,4.57
2018-09-13T10:54:07.313Z,3.30
2018-09-13T10:56:35.477Z,3.97
2018-09-13T10:59:03.389Z,3.83
2018-09-13T11:01:31.267Z,3.60
2018-09-13T11:03:59.116Z,3.70
2018-09-13T11:06:26.901Z,3.50
2018-09-13T11:08:54.693Z,4.03
2018-09-13T11:11:22.577Z,5.40
2018-09-13T11:13:57.603Z,5.43
2018-09-13T11:16:25.389Z,3.17
2018-09-13T11:18:53.384Z,3.43
2018-09-13T11:21:21.177Z,6.50
2018-09-13T11:23:48.990Z,3.77
2018-09-13T11:26:16.867Z,4.47
2018-09-13T11:28:44.694Z,5.00
2018-09-13T11:31:12.568Z,3.63
2018-09-13T11:33:40.390Z,4.77
2018-09-13T11:36:08.242Z,3.57
2018-09-13T11:38:36.035Z,3.13
2018-09-13T11:41:03.953Z,3.23
2018-09-13T11:43:31.694Z,3.60
2018-09-13T11:45:59.498Z,3.23
2018-09-13T11:48:27.278Z,4.43
2018-09-13T11:50:55.095Z,3.40
2018-09-13T11:53:22.930Z,3.13
2018-09-13T11:55:50.730Z,5.30
2018-09-13T11:58:18.584Z,4.27
2018-09-13T12:00:46.387Z,3.77
2018-09-13T12:03:14.839Z,2.97
2018-09-13T12:05:42.707Z,6.57
2018-09-13T12:08:10.487Z,3.40
2018-09-13T12:10:38.292Z,2.57
2018-09-13T12:13:06.135Z,5.33
2018-09-13T12:15:34.040Z,3.10
2018-09-13T12:18:02.030Z,3.90
2018-09-13T12:20:29.757Z,3.43
2018-09-13T12:22:57.612Z,3.20
2018-09-13T12:25:25.413Z,4.13
2018-09-13T12:27:53.195Z,3.10
2018-09-13T12:30:21.107Z,3.33
2018-09-13T12:32:48.934Z,3.20
2018-09-13T12:35:16.741Z,3.07
2018-09-13T12:37:44.607Z,4.77
2018-09-13T12:40:12.403Z,6.97
2018-09-13T12:42:40.252Z,6.33
2018-09-13T12:45:08.385Z,3.10
2018-09-13T12:47:36.194Z,3.33
2018-09-13T12:50:04.545Z,4.73
2018-09-13T12:52:32.289Z,3.10
2018-09-13T12:55:00.115Z,3.43
2018-09-13T12:57:27.886Z,3.07
2018-09-13T12:59:55.756Z,4.00
2018-09-13T13:02:23.599Z,3.50
2018-09-13T13:04:51.387Z,2.83
2018-09-13T13:07:19.201Z,4.57
2018-09-13T13:09:47.082Z,2.70
2018-09-13T13:12:14.949Z,3.40
2018-09-13T13:14:42.739Z,3.23
2018-09-13T13:17:10.538Z,3.23
2018-09-13T13:19:38.360Z,3.23
2018-09-13T13:22:06.228Z,3.03
2018-09-13T13:24:34.015Z,3.20
2018-09-13T13:27:01.878Z,3.13
2018-09-13T13:29:29.854Z,4.23
2018-09-13T13:31:58.011Z,5.17
2018-09-13T13:34:25.889Z,4.17
2018-09-13T13:36:53.690Z,4.27
2018-09-13T13:39:21.500Z,4.83
2018-09-13T13:41:49.432Z,4.70
2018-09-13T13:44:17.279Z,4.20
2018-09-13T13:46:45.082Z,3.57
2018-09-13T13:49:12.859Z,3.67
2018-09-13T13:51:40.678Z,5.30
2018-09-13T13:54:08.475Z,3.67
2018-09-13T13:56:36.323Z,3.43
2018-09-13T13:59:04.156Z,2.93
2018-09-13T14:01:32.012Z,3.10
2018-09-13T14:03:59.787Z,7.77
2018-09-13T14:06:27.659Z,4.23
2018-09-13T14:08:55.468Z,4.20
2018-09-13T14:11:23.259Z,3.40
2018-09-13T14:13:51.101Z,3.87
2018-09-13T14:16:19.201Z,4.80
2018-09-13T14:18:47.265Z,4.00
2018-09-13T14:21:15.103Z,3.43
2018-09-13T14:23:42.995Z,3.50
2018-09-13T14:26:10.787Z,4.27
2018-09-13T14:28:38.676Z,2.63
2018-09-13T14:31:06.559Z,2.80
2018-09-13T14:33:34.391Z,2.97
2018-09-13T14:36:02.248Z,3.70
2018-09-13T14:38:30.140Z,3.53
2018-09-13T14:40:58.239Z,3.20
2018-09-13T14:43:26.087Z,3.63
2018-09-13T14:45:54.028Z,3.70
2018-09-13T14:48:21.839Z,4.87
2018-09-13T14:50:49.695Z,2.43
2018-09-13T14:53:17.505Z,4.40
2018-09-13T14:55:45.325Z,3.07
2018-09-13T14:58:13.133Z,2.80
2018-09-13T15:00:40.967Z,3.13
2018-09-13T15:03:08.792Z,3.50
2018-09-13T15:05:36.657Z,5.00
2018-09-13T15:08:04.532Z,2.80
2018-09-13T15:10:32.320Z,2.50
2018-09-13T15:13:00.200Z,2.80
2018-09-13T15:15:28.011Z,3.70
2018-09-13T15:17:55.951Z,2.60
2018-09-13T15:20:23.788Z,2.60
2018-09-13T15:22:51.572Z,4.00
2018-09-13T15:25:19.450Z,3.27
2018-09-13T15:27:47.268Z,4.50
2018-09-13T15:30:15.124Z,3.97
2018-09-13T15:32:42.994Z,4.83
2018-09-13T15:35:10.762Z,4.80
2018-09-13T15:37:38.571Z,4.43
2018-09-13T15:40:06.457Z,3.20
2018-09-13T15:42:34.276Z,3.43
2018-09-13T15:45:02.071Z,4.63
2018-09-13T15:47:29.878Z,2.87
2018-09-13T15:49:57.857Z,3.17
2018-09-13T15:52:25.753Z,6.60
2018-09-13T15:54:53.603Z,4.80
2018-09-13T15:57:21.380Z,5.70
2018-09-13T15:59:49.241Z,6.03
2018-09-13T16:02:17.189Z,4.40
2018-09-13T16:04:44.996Z,3.40
2018-09-13T16:07:12.795Z,3.70
2018-09-13T16:09:40.658Z,4.87
2018-09-13T16:12:08.546Z,4.00
2018-09-13T16:14:36.459Z,4.87
2018-09-13T16:17:04.289Z,4.23
2018-09-13T16:19:32.454Z,3.90
2018-09-13T16:22:00.327Z,4.27
2018-09-13T16:24:28.135Z,2.87
2018-09-13T16:26:55.962Z,7.40
2018-09-13T16:29:23.912Z,3.20
2018-09-13T16:31:51.842Z,4.10
2018-09-13T16:34:19.709Z,5.27
2018-09-13T16:36:52.899Z,5.87
2018-09-13T16:39:26.679Z,8.20
2018-09-13T16:42:00.027Z,7.73
2018-09-13T16:44:33.031Z,7.47
2018-09-13T16:47:06.516Z,5.03
2018-09-13T16:49:35.236Z,4.17
2018-09-13T16:52:03.025Z,6.13
2018-09-13T16:54:31.051Z,4.97
2018-09-13T16:56:59.187Z,3.63
2018-09-13T16:59:26.980Z,4.53
2018-09-13T17:01:54.772Z,3.40
2018-09-13T17:04:22.606Z,3.40
2018-09-13T17:06:50.468Z,4.50
2018-09-13T17:09:18.353Z,4.67
2018-09-13T17:11:46.126Z,5.13
2018-09-13T17:14:13.910Z,3.77
2018-09-13T17:16:41.703Z,4.60
2018-09-13T17:19:09.511Z,4.37
2018-09-13T17:21:37.416Z,5.00
2018-09-13T17:24:05.208Z,4.27
2018-09-13T17:26:33.442Z,4.87
2018-09-13T17:29:01.558Z,6.70
2018-09-13T17:31:29.481Z,6.77
2018-09-13T17:33:57.470Z,5.20
2018-09-13T17:36:25.251Z,5.10
2018-09-13T17:38:53.041Z,6.27
2018-09-13T17:41:20.807Z,3.97
2018-09-13T17:43:48.914Z,3.60
2018-09-13T17:46:16.720Z,4.23
2018-09-13T17:48:44.521Z,3.83
2018-09-13T17:51:12.326Z,4.30
2018-09-13T17:53:40.163Z,4.40
2018-09-13T17:56:08.054Z,5.17
2018-09-13T17:58:35.827Z,5.60
2018-09-13T18:01:03.614Z,3.70
2018-09-13T18:03:31.552Z,5.83
2018-09-13T18:05:59.367Z,6.23
2018-09-13T18:08:27.183Z,8.57
2018-09-13T18:10:55.028Z,4.43
2018-09-13T18:13:22.808Z,6.17
2018-09-13T18:15:50.855Z,8.27
2018-09-13T18:18:18.717Z,7.17
2018-09-13T18:20:46.565Z,6.83
2018-09-13T18:23:14.430Z,19.23
2018-09-13T18:25:42.208Z,7.00
2018-09-13T18:28:09.995Z,6.50
2018-09-13T18:30:37.833Z,7.97
2018-09-13T18:33:05.732Z,4.57
2018-09-13T18:35:33.575Z,4.43
2018-09-13T18:38:01.523Z,4.87
2018-09-13T18:40:29.291Z,4.43
2018-09-13T18:42:57.078Z,4.63
2018-09-13T18:45:25.043Z,6.53
2018-09-13T18:47:52.922Z,7.47
2018-09-13T18:50:20.726Z,5.93
2018-09-13T18:52:48.577Z,7.13
2018-09-13T18:55:16.370Z,5.63
2018-09-13T18:57:44.171Z,5.63
2018-09-13T19:00:12.049Z,6.80
2018-09-13T19:02:39.876Z,5.13
2018-09-13T19:05:07.691Z,6.00
2018-09-13T19:07:35.506Z,5.93
2018-09-13T19:10:03.330Z,4.87
2018-09-13T19:12:31.124Z,5.40
2018-09-13T19:14:58.955Z,6.20
2018-09-13T19:17:26.860Z,4.87
2018-09-13T19:19:54.683Z,5.97
2018-09-13T19:22:22.522Z,6.70
2018-09-13T19:24:50.343Z,5.83
2018-09-13T19:27:18.182Z,5.20
2018-09-13T19:29:46.001Z,5.17
2018-09-13T19:32:13.779Z,6.30
2018-09-13T19:34:41.598Z,7.87
2018-09-13T19:37:09.485Z,6.07
2018-09-13T19:39:37.372Z,7.07
2018-09-13T19:42:05.270Z,6.33
2018-09-13T19:44:33.133Z,4.27
2018-09-13T19:47:00.941Z,5.53
2018-09-13T19:49:28.711Z,4.57
2018-09-13T19:51:56.522Z,4.87
2018-09-13T19:54:24.301Z,4.97
2018-09-13T19:56:52.225Z,6.57
2018-09-13T19:59:20.006Z,6.73
2018-09-13T20:01:47.830Z,6.47
2018-09-13T20:04:15.606Z,5.40
2018-09-13T20:06:43.476Z,6.57
2018-09-13T20:09:12.679Z,8.40
2018-09-13T20:11:40.661Z,5.87
2018-09-13T20:14:09.956Z,5.43
2018-09-13T20:16:38.752Z,7.50
2018-09-13T20:19:06.589Z,10.73
2018-09-13T20:21:34.390Z,5.57
2018-09-13T20:24:02.187Z,5.07
2018-09-13T20:26:30.032Z,6.73
2018-09-13T20:28:57.936Z,6.87
2018-09-13T20:31:25.715Z,5.23
2018-09-13T20:33:53.486Z,7.20
2018-09-13T20:36:21.340Z,7.10
2018-09-13T20:38:49.180Z,9.03
2018-09-13T20:41:16.994Z,6.23
2018-09-13T20:43:44.833Z,6.37
2018-09-13T20:46:12.666Z,5.10
2018-09-13T20:48:40.558Z,6.33
2018-09-13T20:51:08.390Z,8.37
2018-09-13T20:53:36.171Z,6.70
2018-09-13T20:56:03.956Z,5.37
2018-09-13T20:58:31.750Z,7.73
2018-09-13T21:00:59.527Z,5.33
2018-09-13T21:03:27.308Z,5.33
2018-09-13T21:05:55.178Z,6.13
2018-09-13T21:08:23.023Z,5.20
2018-09-13T21:10:50.949Z,5.80
2018-09-13T21:13:18.740Z,5.47
2018-09-13T21:15:46.520Z,7.73
2018-09-13T21:18:14.403Z,7.83
2018-09-13T21:20:42.211Z,6.37
2018-09-13T21:23:10.073Z,6.67
2018-09-13T21:25:37.851Z,6.50
2018-09-13T21:28:05.823Z,6.17
2018-09-13T21:30:33.640Z,7.17
2018-09-13T21:33:01.463Z,5.57
2018-09-13T21:35:29.282Z,4.80
2018-09-13T21:37:57.136Z,6.77
2018-09-13T21:40:25.130Z,7.00
2018-09-13T21:42:52.938Z,6.30
2018-09-13T21:45:20.720Z,6.53
2018-09-13T21:47:48.527Z,8.23
2018-09-13T21:50:16.380Z,6.17
2018-09-13T21:52:44.159Z,6.77
2018-09-13T21:55:11.934Z,7.07
2018-09-13T21:57:39.783Z,7.57
2018-09-13T22:00:08.958Z,6.23
2018-09-13T22:02:37.357Z,7.10
2018-09-13T22:05:05.378Z,7.03
2018-09-13T22:07:33.173Z,7.50
2018-09-13T22:10:01.074Z,5.17
2018-09-13T22:12:28.872Z,5.97
2018-09-13T22:14:56.935Z,7.60
2018-09-13T22:17:24.711Z,7.33
2018-09-13T22:19:52.520Z,7.00
2018-09-13T22:22:20.291Z,8.63
2018-09-13T22:24:48.196Z,5.83
2018-09-13T22:27:16.011Z,5.77
2018-09-13T22:29:43.904Z,5.47
2018-09-13T22:32:11.725Z,7.90
2018-09-13T22:34:39.531Z,7.00
2018-09-13T22:37:07.441Z,6.50
2018-09-13T22:39:35.223Z,6.30
2018-09-13T22:42:03.026Z,5.83
2018-09-13T22:44:35.016Z,6.57
2018-09-13T22:47:03.270Z,8.43
2018-09-13T22:49:31.057Z,7.53
2018-09-13T22:52:01.816Z,7.40
2018-09-13T22:54:29.914Z,7.90
2018-09-13T22:56:58.128Z,5.83
2018-09-13T22:59:25.991Z,7.57
2018-09-13T23:01:54.473Z,7.43
2018-09-13T23:04:23.475Z,6.93
2018-09-13T23:06:51.580Z,7.67
2018-09-13T23:09:19.412Z,7.57
2018-09-13T23:11:47.358Z,7.63
2018-09-13T23:14:15.742Z,9.00
2018-09-13T23:16:49.575Z,7.43
2018-09-13T23:19:11.584Z,9.60
2018-09-13T23:21:39.668Z,7.53
2018-09-13T23:24:07.520Z,8.87
2018-09-13T23:26:35.335Z,9.73
2018-09-13T23:29:03.205Z,10.97
2018-09-13T23:31:31.022Z,7.80
2018-09-13T23:33:58.868Z,6.93
2018-09-13T23:36:26.826Z,7.40
2018-09-13T23:38:54.645Z,7.00
2018-09-13T23:41:22.437Z,8.20
2018-09-13T23:43:50.315Z,7.57
2018-09-13T23:46:18.174Z,6.40
2018-09-13T23:48:46.045Z,5.20
2018-09-13T23:51:13.822Z,5.90
2018-09-13T23:53:41.620Z,5.33
2018-09-13T23:56:09.394Z,6.90
2018-09-13T23:58:37.171Z,6.27
